Martell, Nebraska
Current Conditions -  °F | °C
As of 10:54 PM on Wednesday 22 Oct 2014 (Local Time) from KLNK Reporting Station
Overcast Overcast  
Wind Chill: 62°   Ceiling: 5000
Heat Index: 62°   Visibility: 9mi
Dew Point: 59°   Wind: 12mph
Humidity: 90%   Direction: 180°S
Pressure: 30.05"   Gusts: NA
Location:  40.64°N, 96.76°W
Report Text: KLNK 230354Z 18010KT 9SM OVC050 17/15 A3005 RMK AO2 RAE0256 SLP168 P0000 T01670150
Loading
Personal Weather Stations






























Interactive Weather Map
Tropical Storm Tracking
New forecast layout! Learn more

10-Day Weather Forecast

Advertisements
Track Severe Weather on mobile